sensor_id;sensor_type;location;lat;lon;timestamp;pressure;altitude;pressure_sealevel;temperature;humidity
19795;BME280;10057;59.402;17.866;2023-11-21T00:01:14;101788.28;;;1.90;83.47
19795;BME280;10057;59.402;17.866;2023-11-21T00:03:41;101792.69;;;1.92;83.71
19795;BME280;10057;59.402;17.866;2023-11-21T00:06:08;101791.84;;;1.94;83.86
19795;BME280;10057;59.402;17.866;2023-11-21T00:08:37;101798.84;;;1.95;83.39
19795;BME280;10057;59.402;17.866;2023-11-21T00:11:04;101793.63;;;1.97;83.53
19795;BME280;10057;59.402;17.866;2023-11-21T00:13:33;101791.94;;;1.99;83.73
19795;BME280;10057;59.402;17.866;2023-11-21T00:16:00;101793.69;;;2.00;83.71
19795;BME280;10057;59.402;17.866;2023-11-21T00:18:27;101793.72;;;2.04;83.97
19795;BME280;10057;59.402;17.866;2023-11-21T00:20:54;101796.44;;;2.09;83.70
19795;BME280;10057;59.402;17.866;2023-11-21T00:23:20;101803.44;;;2.11;83.81
19795;BME280;10057;59.402;17.866;2023-11-21T00:25:47;101800.84;;;2.13;83.63
19795;BME280;10057;59.402;17.866;2023-11-21T00:28:14;101801.72;;;2.15;83.42
19795;BME280;10057;59.402;17.866;2023-11-21T00:30:41;101809.59;;;2.15;83.62
19795;BME280;10057;59.402;17.866;2023-11-21T00:33:08;101805.25;;;2.16;83.35
19795;BME280;10057;59.402;17.866;2023-11-21T00:35:35;101806.09;;;2.13;83.48
19795;BME280;10057;59.402;17.866;2023-11-21T00:38:01;101808.66;;;2.11;83.53
19795;BME280;10057;59.402;17.866;2023-11-21T00:40:29;101813.03;;;2.11;83.63
19795;BME280;10057;59.402;17.866;2023-11-21T00:42:58;101813.06;;;2.12;83.79
19795;BME280;10057;59.402;17.866;2023-11-21T00:45:25;101822.69;;;2.15;83.57
19795;BME280;10057;59.402;17.866;2023-11-21T00:47:52;101814.00;;;2.16;83.70
19795;BME280;10057;59.402;17.866;2023-11-21T00:50:18;101818.34;;;2.17;83.72
19795;BME280;10057;59.402;17.866;2023-11-21T00:52:45;101820.09;;;2.18;83.47
19795;BME280;10057;59.402;17.866;2023-11-21T00:55:12;101818.41;;;2.20;83.82
19795;BME280;10057;59.402;17.866;2023-11-21T00:57:39;101815.84;;;2.23;83.79
19795;BME280;10057;59.402;17.866;2023-11-21T01:00:06;101819.34;;;2.25;83.92
19795;BME280;10057;59.402;17.866;2023-11-21T01:02:41;101825.47;;;2.26;83.67
19795;BME280;10057;59.402;17.866;2023-11-21T01:05:08;101817.63;;;2.27;83.97
19795;BME280;10057;59.402;17.866;2023-11-21T01:07:34;101830.78;;;2.30;84.12
19795;BME280;10057;59.402;17.866;2023-11-21T01:10:03;101834.28;;;2.31;83.87
19795;BME280;10057;59.402;17.866;2023-11-21T01:12:38;101831.66;;;2.31;83.84
19795;BME280;10057;59.402;17.866;2023-11-21T01:15:05;101832.56;;;2.33;83.83
19795;BME280;10057;59.402;17.866;2023-11-21T01:17:35;101829.94;;;2.34;84.13
19795;BME280;10057;59.402;17.866;2023-11-21T01:20:03;101836.94;;;2.34;83.96
19795;BME280;10057;59.402;17.866;2023-11-21T01:22:32;101837.84;;;2.36;84.20
19795;BME280;10057;59.402;17.866;2023-11-21T01:24:59;101832.63;;;2.36;84.17
19795;BME280;10057;59.402;17.866;2023-11-21T01:27:26;101837.84;;;2.37;83.86
19795;BME280;10057;59.402;17.866;2023-11-21T01:29:53;101836.97;;;2.37;84.00
19795;BME280;10057;59.402;17.866;2023-11-21T01:32:20;101834.38;;;2.37;83.63
19795;BME280;10057;59.402;17.866;2023-11-21T01:34:47;101839.59;;;2.38;83.73
19795;BME280;10057;59.402;17.866;2023-11-21T01:37:14;101843.09;;;2.37;84.13
19795;BME280;10057;59.402;17.866;2023-11-21T01:39:41;101849.19;;;2.36;83.83
19795;BME280;10057;59.402;17.866;2023-11-21T01:42:07;101850.06;;;2.37;83.70
19795;BME280;10057;59.402;17.866;2023-11-21T01:44:34;101843.00;;;2.31;84.20
19795;BME280;10057;59.402;17.866;2023-11-21T01:47:01;101844.75;;;2.32;84.09
19795;BME280;10057;59.402;17.866;2023-11-21T01:49:35;101843.03;;;2.34;83.78
19795;BME280;10057;59.402;17.866;2023-11-21T01:52:03;101845.66;;;2.34;84.33
19795;BME280;10057;59.402;17.866;2023-11-21T01:54:31;101851.81;;;2.36;84.19
19795;BME280;10057;59.402;17.866;2023-11-21T01:57:00;101857.06;;;2.36;84.00
19795;BME280;10057;59.402;17.866;2023-11-21T01:59:37;101860.56;;;2.37;84.20
19795;BME280;10057;59.402;17.866;2023-11-21T02:02:05;101857.03;;;2.35;83.90
19795;BME280;10057;59.402;17.866;2023-11-21T02:04:33;101863.13;;;2.35;84.20
19795;BME280;10057;59.402;17.866;2023-11-21T02:07:00;101859.59;;;2.30;84.39
19795;BME280;10057;59.402;17.866;2023-11-21T02:09:28;101857.84;;;2.29;84.08
19795;BME280;10057;59.402;17.866;2023-11-21T02:11:57;101864.81;;;2.30;84.51
19795;BME280;10057;59.402;17.866;2023-11-21T02:14:26;101863.94;;;2.30;84.12
19795;BME280;10057;59.402;17.866;2023-11-21T02:16:55;101859.59;;;2.30;84.34
19795;BME280;10057;59.402;17.866;2023-11-21T02:19:24;101867.44;;;2.30;84.21
19795;BME280;10057;59.402;17.866;2023-11-21T02:21:57;101864.81;;;2.30;84.47
19795;BME280;10057;59.402;17.866;2023-11-21T02:24:29;101882.28;;;2.31;84.19
19795;BME280;10057;59.402;17.866;2023-11-21T02:26:56;101874.47;;;2.33;84.61
19795;BME280;10057;59.402;17.866;2023-11-21T02:29:23;101877.09;;;2.34;84.04
19795;BME280;10057;59.402;17.866;2023-11-21T02:31:54;101882.38;;;2.37;84.65
19795;BME280;10057;59.402;17.866;2023-11-21T02:34:23;101887.63;;;2.37;84.56
19795;BME280;10057;59.402;17.866;2023-11-21T02:36:51;101885.91;;;2.40;84.58
19795;BME280;10057;59.402;17.866;2023-11-21T02:39:18;101894.66;;;2.42;84.03
19795;BME280;10057;59.402;17.866;2023-11-21T02:41:48;101898.09;;;2.39;83.93
19795;BME280;10057;59.402;17.866;2023-11-21T02:44:15;101899.88;;;2.40;84.61
19795;BME280;10057;59.402;17.866;2023-11-21T02:46:42;101898.16;;;2.41;84.59
19795;BME280;10057;59.402;17.866;2023-11-21T02:49:09;101905.13;;;2.40;84.58
19795;BME280;10057;59.402;17.866;2023-11-21T02:51:39;101911.25;;;2.41;83.97
19795;BME280;10057;59.402;17.866;2023-11-21T02:54:06;101908.56;;;2.37;84.13
19795;BME280;10057;59.402;17.866;2023-11-21T02:56:34;101909.41;;;2.35;84.22
19795;BME280;10057;59.402;17.866;2023-11-21T02:59:01;101908.53;;;2.33;84.06
19795;BME280;10057;59.402;17.866;2023-11-21T03:01:28;101910.22;;;2.29;84.10
19795;BME280;10057;59.402;17.866;2023-11-21T03:03:55;101907.50;;;2.25;84.20
19795;BME280;10057;59.402;17.866;2023-11-21T03:06:22;101918.78;;;2.22;84.50
19795;BME280;10057;59.402;17.866;2023-11-21T03:08:49;101918.78;;;2.19;84.32
19795;BME280;10057;59.402;17.866;2023-11-21T03:11:15;101933.63;;;2.22;84.64
19795;BME280;10057;59.402;17.866;2023-11-21T03:13:42;101924.94;;;2.23;84.38
19795;BME280;10057;59.402;17.866;2023-11-21T03:16:09;101931.06;;;2.23;84.58
19795;BME280;10057;59.402;17.866;2023-11-21T03:18:38;101931.06;;;2.23;84.68
19795;BME280;10057;59.402;17.866;2023-11-21T03:21:06;101933.72;;;2.26;84.81
19795;BME280;10057;59.402;17.866;2023-11-21T03:23:35;101931.97;;;2.27;84.52
19795;BME280;10057;59.402;17.866;2023-11-21T03:26:03;101943.38;;;2.30;84.46
19795;BME280;10057;59.402;17.866;2023-11-21T03:28:29;101939.91;;;2.31;84.34
19795;BME280;10057;59.402;17.866;2023-11-21T03:30:59;101945.13;;;2.30;84.42
19795;BME280;10057;59.402;17.866;2023-11-21T03:33:26;101940.72;;;2.27;84.43
19795;BME280;10057;59.402;17.866;2023-11-21T03:35:52;101946.78;;;2.25;84.13
19795;BME280;10057;59.402;17.866;2023-11-21T03:38:19;101948.53;;;2.24;84.14
19795;BME280;10057;59.402;17.866;2023-11-21T03:40:47;101955.47;;;2.22;84.33
19795;BME280;10057;59.402;17.866;2023-11-21T03:43:14;101943.28;;;2.24;84.08
19795;BME280;10057;59.402;17.866;2023-11-21T03:45:41;101959.00;;;2.24;84.22
19795;BME280;10057;59.402;17.866;2023-11-21T03:48:08;101956.38;;;2.23;84.36
19795;BME280;10057;59.402;17.866;2023-11-21T03:50:35;101957.19;;;2.20;83.77
19795;BME280;10057;59.402;17.866;2023-11-21T03:53:01;101958.88;;;2.18;84.11
19795;BME280;10057;59.402;17.866;2023-11-21T03:55:28;101965.84;;;2.16;84.14
19795;BME280;10057;59.402;17.866;2023-11-21T03:57:55;101958.88;;;2.18;84.40
19795;BME280;10057;59.402;17.866;2023-11-21T04:00:21;101967.66;;;2.20;84.61
19795;BME280;10057;59.402;17.866;2023-11-21T04:02:48;101970.28;;;2.22;84.54
19795;BME280;10057;59.402;17.866;2023-11-21T04:05:15;101971.22;;;2.24;84.86
19795;BME280;10057;59.402;17.866;2023-11-21T04:07:42;101966.81;;;2.21;84.62
19795;BME280;10057;59.402;17.866;2023-11-21T04:10:09;101972.97;;;2.25;84.42
19795;BME280;10057;59.402;17.866;2023-11-21T04:12:36;101974.75;;;2.27;84.75
19795;BME280;10057;59.402;17.866;2023-11-21T04:15:03;101980.91;;;2.29;84.81
19795;BME280;10057;59.402;17.866;2023-11-21T04:17:30;101984.44;;;2.31;84.85
19795;BME280;10057;59.402;17.866;2023-11-21T04:19:57;101983.56;;;2.32;84.78
19795;BME280;10057;59.402;17.866;2023-11-21T04:22:23;101998.44;;;2.35;84.57
19795;BME280;10057;59.402;17.866;2023-11-21T04:24:50;101998.50;;;2.36;84.73
19795;BME280;10057;59.402;17.866;2023-11-21T04:27:17;101998.50;;;2.36;84.39
19795;BME280;10057;59.402;17.866;2023-11-21T04:29:46;101999.38;;;2.38;84.72
19795;BME280;10057;59.402;17.866;2023-11-21T04:32:13;101996.00;;;2.44;84.96
19795;BME280;10057;59.402;17.866;2023-11-21T04:34:39;102001.34;;;2.52;84.82
19795;BME280;10057;59.402;17.866;2023-11-21T04:37:06;101999.66;;;2.54;84.66
19795;BME280;10057;59.402;17.866;2023-11-21T04:39:33;102004.00;;;2.53;84.62
19795;BME280;10057;59.402;17.866;2023-11-21T04:41:59;102003.09;;;2.50;84.66
19795;BME280;10057;59.402;17.866;2023-11-21T04:44:26;102003.88;;;2.46;85.07
19795;BME280;10057;59.402;17.866;2023-11-21T04:46:53;102003.03;;;2.47;84.73
19795;BME280;10057;59.402;17.866;2023-11-21T04:49:19;102006.47;;;2.46;84.46
19795;BME280;10057;59.402;17.866;2023-11-21T04:51:46;102008.22;;;2.44;84.75
19795;BME280;10057;59.402;17.866;2023-11-21T04:54:13;102015.16;;;2.42;84.46
19795;BME280;10057;59.402;17.866;2023-11-21T04:56:39;102018.63;;;2.41;84.58
19795;BME280;10057;59.402;17.866;2023-11-21T04:59:06;102016.88;;;2.40;84.66
19795;BME280;10057;59.402;17.866;2023-11-21T05:01:32;102029.06;;;2.39;84.27
19795;BME280;10057;59.402;17.866;2023-11-21T05:03:59;102027.25;;;2.33;84.51
19795;BME280;10057;59.402;17.866;2023-11-21T05:06:26;102040.25;;;2.29;84.11
19795;BME280;10057;59.402;17.866;2023-11-21T05:08:53;102034.06;;;2.25;84.79
19795;BME280;10057;59.402;17.866;2023-11-21T05:11:26;102035.00;;;2.26;84.75
19795;BME280;10057;59.402;17.866;2023-11-21T05:13:53;102032.25;;;2.21;84.20
19795;BME280;10057;59.402;17.866;2023-11-21T05:16:20;102039.13;;;2.13;84.67
19795;BME280;10057;59.402;17.866;2023-11-21T05:18:46;102039.88;;;2.07;84.13
19795;BME280;10057;59.402;17.866;2023-11-21T05:21:13;102043.28;;;2.03;84.68
19795;BME280;10057;59.402;17.866;2023-11-21T05:23:40;102046.72;;;1.99;84.75
19795;BME280;10057;59.402;17.866;2023-11-21T05:26:06;102041.44;;;1.98;84.49
19795;BME280;10057;59.402;17.866;2023-11-21T05:28:35;102044.06;;;1.98;84.37
19795;BME280;10057;59.402;17.866;2023-11-21T05:31:03;102049.28;;;1.98;84.57
19795;BME280;10057;59.402;17.866;2023-11-21T05:33:41;102055.38;;;1.95;84.95
19795;BME280;10057;59.402;17.866;2023-11-21T05:36:08;102061.44;;;1.94;84.45
19795;BME280;10057;59.402;17.866;2023-11-21T05:38:36;102056.25;;;1.96;84.82
19795;BME280;10057;59.402;17.866;2023-11-21T05:41:03;102058.88;;;1.96;84.42
19795;BME280;10057;59.402;17.866;2023-11-21T05:43:32;102057.06;;;1.95;84.90
19795;BME280;10057;59.402;17.866;2023-11-21T05:46:02;102057.94;;;1.94;84.56
19795;BME280;10057;59.402;17.866;2023-11-21T05:48:29;102059.75;;;1.96;84.70
19795;BME280;10057;59.402;17.866;2023-11-21T05:50:55;102063.25;;;1.97;84.83
19795;BME280;10057;59.402;17.866;2023-11-21T05:53:22;102060.63;;;1.98;84.71
19795;BME280;10057;59.402;17.866;2023-11-21T05:55:48;102078.94;;;1.95;84.40
19795;BME280;10057;59.402;17.866;2023-11-21T05:58:15;102071.91;;;1.93;85.05
19795;BME280;10057;59.402;17.866;2023-11-21T06:00:42;102077.16;;;1.94;84.80
19795;BME280;10057;59.402;17.866;2023-11-21T06:03:08;102076.25;;;1.92;84.72
19795;BME280;10057;59.402;17.866;2023-11-21T06:05:36;102074.50;;;1.93;84.43
19795;BME280;10057;59.402;17.866;2023-11-21T06:08:03;102088.41;;;1.90;84.52
19795;BME280;10057;59.402;17.866;2023-11-21T06:10:30;102084.88;;;1.88;85.02
19795;BME280;10057;59.402;17.866;2023-11-21T06:12:57;102082.31;;;1.89;84.88
19795;BME280;10057;59.402;17.866;2023-11-21T06:15:28;102090.16;;;1.91;84.67
19795;BME280;10057;59.402;17.866;2023-11-21T06:17:55;102092.78;;;1.89;85.03
19795;BME280;10057;59.402;17.866;2023-11-21T06:20:22;102101.47;;;1.88;84.81
19795;BME280;10057;59.402;17.866;2023-11-21T06:22:50;102098.00;;;1.89;84.52
19795;BME280;10057;59.402;17.866;2023-11-21T06:25:17;102108.41;;;1.88;84.96
19795;BME280;10057;59.402;17.866;2023-11-21T06:27:46;102109.28;;;1.85;84.51
19795;BME280;10057;59.402;17.866;2023-11-21T06:30:14;102108.28;;;1.80;84.73
19795;BME280;10057;59.402;17.866;2023-11-21T06:32:42;102121.34;;;1.79;84.99
19795;BME280;10057;59.402;17.866;2023-11-21T06:35:13;102116.91;;;1.75;84.49
19795;BME280;10057;59.402;17.866;2023-11-21T06:37:40;102120.34;;;1.72;84.74
19795;BME280;10057;59.402;17.866;2023-11-21T06:40:07;102115.03;;;1.71;84.81
19795;BME280;10057;59.402;17.866;2023-11-21T06:42:36;102113.34;;;1.71;84.67
19795;BME280;10057;59.402;17.866;2023-11-21T06:45:05;102120.25;;;1.69;84.89
19795;BME280;10057;59.402;17.866;2023-11-21T06:47:32;102129.88;;;1.70;85.04
19795;BME280;10057;59.402;17.866;2023-11-21T06:49:59;102130.72;;;1.69;85.02
19795;BME280;10057;59.402;17.866;2023-11-21T06:52:26;102134.13;;;1.65;84.79
19795;BME280;10057;59.402;17.866;2023-11-21T06:54:53;102134.06;;;1.62;84.75
19795;BME280;10057;59.402;17.866;2023-11-21T06:57:19;102138.41;;;1.61;84.81
19795;BME280;10057;59.402;17.866;2023-11-21T06:59:46;102149.75;;;1.62;84.60
19795;BME280;10057;59.402;17.866;2023-11-21T07:02:13;102142.78;;;1.62;85.16
19795;BME280;10057;59.402;17.866;2023-11-21T07:04:41;102148.00;;;1.61;84.73
19795;BME280;10057;59.402;17.866;2023-11-21T07:07:07;102153.25;;;1.61;85.00
19795;BME280;10057;59.402;17.866;2023-11-21T07:09:34;102155.00;;;1.62;84.62
19795;BME280;10057;59.402;17.866;2023-11-21T07:12:01;102156.75;;;1.63;85.00
19795;BME280;10057;59.402;17.866;2023-11-21T07:14:30;102164.69;;;1.66;84.97
19795;BME280;10057;59.402;17.866;2023-11-21T07:16:57;102173.41;;;1.66;85.38
19795;BME280;10057;59.402;17.866;2023-11-21T07:19:23;102173.47;;;1.68;85.41
19795;BME280;10057;59.402;17.866;2023-11-21T07:21:51;102169.13;;;1.70;84.86
19795;BME280;10057;59.402;17.866;2023-11-21T07:24:18;102180.50;;;1.72;84.93
19795;BME280;10057;59.402;17.866;2023-11-21T07:26:44;102183.13;;;1.72;85.27
19795;BME280;10057;59.402;17.866;2023-11-21T07:29:11;102183.16;;;1.74;85.39
19795;BME280;10057;59.402;17.866;2023-11-21T07:31:40;102183.13;;;1.72;85.16
19795;BME280;10057;59.402;17.866;2023-11-21T07:34:08;102183.13;;;1.72;85.07
19795;BME280;10057;59.402;17.866;2023-11-21T07:36:35;102191.84;;;1.71;85.09
19795;BME280;10057;59.402;17.866;2023-11-21T07:39:02;102184.81;;;1.70;85.07
19795;BME280;10057;59.402;17.866;2023-11-21T07:41:29;102190.06;;;1.70;85.46
19795;BME280;10057;59.402;17.866;2023-11-21T07:43:57;102184.81;;;1.70;84.99
19795;BME280;10057;59.402;17.866;2023-11-21T07:46:26;102193.59;;;1.72;85.31
19795;BME280;10057;59.402;17.866;2023-11-21T07:48:54;102197.97;;;1.72;85.17
19795;BME280;10057;59.402;17.866;2023-11-21T07:51:21;102202.31;;;1.73;84.88
19795;BME280;10057;59.402;17.866;2023-11-21T07:53:48;102202.31;;;1.71;85.19
19795;BME280;10057;59.402;17.866;2023-11-21T07:56:16;102202.31;;;1.71;85.50
19795;BME280;10057;59.402;17.866;2023-11-21T07:58:43;102211.03;;;1.72;84.88
19795;BME280;10057;59.402;17.866;2023-11-21T08:01:09;102212.78;;;1.73;84.93
19795;BME280;10057;59.402;17.866;2023-11-21T08:03:36;102215.41;;;1.73;84.76
19795;BME280;10057;59.402;17.866;2023-11-21T08:06:03;102223.28;;;1.74;85.04
19795;BME280;10057;59.402;17.866;2023-11-21T08:08:33;102221.53;;;1.73;85.00
19795;BME280;10057;59.402;17.866;2023-11-21T08:11:00;102225.00;;;1.72;85.16
19795;BME280;10057;59.402;17.866;2023-11-21T08:13:29;102227.56;;;1.71;85.20
19795;BME280;10057;59.402;17.866;2023-11-21T08:15:58;102234.50;;;1.69;85.26
19795;BME280;10057;59.402;17.866;2023-11-21T08:18:30;102233.66;;;1.70;84.98
19795;BME280;10057;59.402;17.866;2023-11-21T08:20:57;102241.47;;;1.68;85.04
19795;BME280;10057;59.402;17.866;2023-11-21T08:23:23;102241.44;;;1.66;85.16
19795;BME280;10057;59.402;17.866;2023-11-21T08:25:53;102253.69;;;1.68;85.33
19795;BME280;10057;59.402;17.866;2023-11-21T08:28:21;102244.09;;;1.68;85.26
19795;BME280;10057;59.402;17.866;2023-11-21T08:30:52;102251.94;;;1.68;84.94
19795;BME280;10057;59.402;17.866;2023-11-21T08:33:20;102242.31;;;1.67;85.47
19795;BME280;10057;59.402;17.866;2023-11-21T08:35:48;102251.94;;;1.68;85.13
19795;BME280;10057;59.402;17.866;2023-11-21T08:38:15;102258.97;;;1.71;84.94
19795;BME280;10057;59.402;17.866;2023-11-21T08:40:41;102261.56;;;1.69;85.42
19795;BME280;10057;59.402;17.866;2023-11-21T08:43:08;102257.13;;;1.66;84.83
19795;BME280;10057;59.402;17.866;2023-11-21T08:45:34;102264.91;;;1.63;84.87
19795;BME280;10057;59.402;17.866;2023-11-21T08:48:01;102264.88;;;1.62;85.00
19795;BME280;10057;59.402;17.866;2023-11-21T08:50:29;102270.91;;;1.59;84.82
19795;BME280;10057;59.402;17.866;2023-11-21T08:52:55;102280.50;;;1.59;85.32
19795;BME280;10057;59.402;17.866;2023-11-21T08:55:22;102282.25;;;1.60;85.37
19795;BME280;10057;59.402;17.866;2023-11-21T08:57:49;102283.13;;;1.59;84.88
19795;BME280;10057;59.402;17.866;2023-11-21T09:00:17;102286.59;;;1.58;85.53
19795;BME280;10057;59.402;17.866;2023-11-21T09:02:45;102285.81;;;1.62;85.11
19795;BME280;10057;59.402;17.866;2023-11-21T09:05:13;102287.56;;;1.63;84.98
19795;BME280;10057;59.402;17.866;2023-11-21T09:07:41;102286.72;;;1.64;84.85
19795;BME280;10057;59.402;17.866;2023-11-21T09:10:08;102291.13;;;1.65;84.77
19795;BME280;10057;59.402;17.866;2023-11-21T09:12:37;102287.56;;;1.63;84.91
19795;BME280;10057;59.402;17.866;2023-11-21T09:15:05;102291.94;;;1.64;84.86
19795;BME280;10057;59.402;17.866;2023-11-21T09:17:33;102296.44;;;1.68;85.49
19795;BME280;10057;59.402;17.866;2023-11-21T09:20:01;102304.41;;;1.74;85.12
19795;BME280;10057;59.402;17.866;2023-11-21T09:22:30;102298.44;;;1.78;85.43
19795;BME280;10057;59.402;17.866;2023-11-21T09:24:58;102307.31;;;1.86;85.30
19795;BME280;10057;59.402;17.866;2023-11-21T09:27:25;102297.00;;;1.93;85.37
19795;BME280;10057;59.402;17.866;2023-11-21T09:29:54;102310.25;;;2.00;85.17
19795;BME280;10057;59.402;17.866;2023-11-21T09:32:21;102312.09;;;2.04;85.42
19795;BME280;10057;59.402;17.866;2023-11-21T09:34:49;102311.28;;;2.05;85.21
19795;BME280;10057;59.402;17.866;2023-11-21T09:37:16;102319.94;;;2.04;85.05
19795;BME280;10057;59.402;17.866;2023-11-21T09:39:43;102311.19;;;2.02;84.94
19795;BME280;10057;59.402;17.866;2023-11-21T09:42:13;102308.53;;;2.01;84.65
19795;BME280;10057;59.402;17.866;2023-11-21T09:47:10;102316.38;;;2.01;84.75
19795;BME280;10057;59.402;17.866;2023-11-21T09:49:38;102317.25;;;2.01;85.25
19795;BME280;10057;59.402;17.866;2023-11-21T09:52:07;102319.13;;;2.05;84.78
19795;BME280;10057;59.402;17.866;2023-11-21T09:54:36;102322.63;;;2.06;85.16
19795;BME280;10057;59.402;17.866;2023-11-21T09:57:03;102320.00;;;2.06;85.05
19795;BME280;10057;59.402;17.866;2023-11-21T09:59:30;102323.53;;;2.08;84.56
19795;BME280;10057;59.402;17.866;2023-11-21T10:01:59;102328.75;;;2.08;84.79
19795;BME280;10057;59.402;17.866;2023-11-21T10:04:27;102331.38;;;2.08;84.76
19795;BME280;10057;59.402;17.866;2023-11-21T10:06:55;102329.63;;;2.08;84.87
19795;BME280;10057;59.402;17.866;2023-11-21T10:09:23;102325.25;;;2.06;84.95
19795;BME280;10057;59.402;17.866;2023-11-21T10:11:51;102319.06;;;2.04;84.55
19795;BME280;10057;59.402;17.866;2023-11-21T10:14:21;102324.22;;;1.99;84.33
19795;BME280;10057;59.402;17.866;2023-11-21T10:16:52;102331.03;;;1.93;84.11
19795;BME280;10057;59.402;17.866;2023-11-21T10:19:21;102324.84;;;1.89;84.48
19795;BME280;10057;59.402;17.866;2023-11-21T10:21:47;102337.88;;;1.87;84.78
19795;BME280;10057;59.402;17.866;2023-11-21T10:24:14;102335.19;;;1.84;84.66
19795;BME280;10057;59.402;17.866;2023-11-21T10:26:42;102340.41;;;1.84;84.49
19795;BME280;10057;59.402;17.866;2023-11-21T10:29:18;102350.06;;;1.85;84.83
19795;BME280;10057;59.402;17.866;2023-11-21T10:31:45;102344.84;;;1.87;84.91
19795;BME280;10057;59.402;17.866;2023-11-21T10:34:19;102351.91;;;1.89;84.78
19795;BME280;10057;59.402;17.866;2023-11-21T10:36:46;102351.03;;;1.90;84.78
19795;BME280;10057;59.402;17.866;2023-11-21T10:39:17;102352.84;;;1.92;84.65
19795;BME280;10057;59.402;17.866;2023-11-21T10:41:48;102357.22;;;1.94;84.95
19795;BME280;10057;59.402;17.866;2023-11-21T10:44:16;102352.06;;;1.97;85.07
19795;BME280;10057;59.402;17.866;2023-11-21T10:46:49;102349.59;;;2.02;85.07
19795;BME280;10057;59.402;17.866;2023-11-21T10:49:24;102365.41;;;2.08;84.65
19795;BME280;10057;59.402;17.866;2023-11-21T10:51:53;102367.31;;;2.13;85.05
19795;BME280;10057;59.402;17.866;2023-11-21T10:54:20;102367.44;;;2.20;84.84
19795;BME280;10057;59.402;17.866;2023-11-21T10:56:55;102368.41;;;2.23;85.07
19795;BME280;10057;59.402;17.866;2023-11-21T10:59:23;102366.63;;;2.22;84.58
19795;BME280;10057;59.402;17.866;2023-11-21T11:01:52;102365.72;;;2.22;84.44
19795;BME280;10057;59.402;17.866;2023-11-21T11:04:19;102370.97;;;2.22;84.76
19795;BME280;10057;59.402;17.866;2023-11-21T11:06:51;102368.34;;;2.20;84.45
19795;BME280;10057;59.402;17.866;2023-11-21T11:09:20;102374.34;;;2.16;84.61
19795;BME280;10057;59.402;17.866;2023-11-21T11:11:47;102376.91;;;2.13;84.28
19795;BME280;10057;59.402;17.866;2023-11-21T11:14:15;102384.75;;;2.13;84.79
19795;BME280;10057;59.402;17.866;2023-11-21T11:16:43;102382.94;;;2.10;84.61
19795;BME280;10057;59.402;17.866;2023-11-21T11:19:10;102379.38;;;2.08;84.40
19795;BME280;10057;59.402;17.866;2023-11-21T11:21:45;102396.84;;;2.08;84.28
19795;BME280;10057;59.402;17.866;2023-11-21T11:33:10;102386.38;;;2.08;84.84
19795;BME280;10057;59.402;17.866;2023-11-21T11:35:46;102392.56;;;2.11;84.62
19795;BME280;10057;59.402;17.866;2023-11-21T11:38:18;102395.19;;;2.11;84.55
19795;BME280;10057;59.402;17.866;2023-11-21T11:40:46;102395.25;;;2.14;84.81
19795;BME280;10057;59.402;17.866;2023-11-21T11:43:13;102402.31;;;2.17;84.33
19795;BME280;10057;59.402;17.866;2023-11-21T11:45:40;102403.19;;;2.18;84.52
19795;BME280;10057;59.402;17.866;2023-11-21T11:48:11;102408.41;;;2.16;84.07
19795;BME280;10057;59.402;17.866;2023-11-21T11:51:01;102402.16;;;2.11;84.17
19795;BME280;10057;59.402;17.866;2023-11-21T11:53:35;102400.31;;;2.07;84.07
19795;BME280;10057;59.402;17.866;2023-11-21T11:56:31;102416.00;;;2.05;84.51
19795;BME280;10057;59.402;17.866;2023-11-21T11:59:03;102406.34;;;2.04;84.37
19795;BME280;10057;59.402;17.866;2023-11-21T12:01:33;102414.19;;;2.03;83.88
19795;BME280;10057;59.402;17.866;2023-11-21T12:06:53;102434.19;;;2.01;83.93
19795;BME280;10057;59.402;17.866;2023-11-21T12:09:24;102433.28;;;1.99;84.17
19795;BME280;10057;59.402;17.866;2023-11-21T12:11:53;102434.09;;;1.96;84.16
19795;BME280;10057;59.402;17.866;2023-11-21T12:14:23;102434.94;;;1.95;84.05
19795;BME280;10057;59.402;17.866;2023-11-21T12:16:50;102434.00;;;1.93;83.97
19795;BME280;10057;59.402;17.866;2023-11-21T12:19:18;102429.56;;;1.90;84.03
19795;BME280;10057;59.402;17.866;2023-11-21T12:21:45;102426.06;;;1.90;84.28
19795;BME280;10057;59.402;17.866;2023-11-21T12:24:12;102433.91;;;1.88;84.22
19795;BME280;10057;59.402;17.866;2023-11-21T12:26:41;102430.31;;;1.85;84.29
19795;BME280;10057;59.402;17.866;2023-11-21T12:29:08;102435.47;;;1.82;83.75
19795;BME280;10057;59.402;17.866;2023-11-21T12:31:34;102439.75;;;1.78;83.84
19795;BME280;10057;59.402;17.866;2023-11-21T12:34:01;102436.16;;;1.75;84.02
19795;BME280;10057;59.402;17.866;2023-11-21T12:36:29;102447.47;;;1.74;83.77
19795;BME280;10057;59.402;17.866;2023-11-21T12:38:56;102441.25;;;1.70;84.01
19795;BME280;10057;59.402;17.866;2023-11-21T12:41:23;102448.22;;;1.70;84.31
19795;BME280;10057;59.402;17.866;2023-11-21T12:43:50;102443.84;;;1.69;83.67
19795;BME280;10057;59.402;17.866;2023-11-21T12:46:17;102450.75;;;1.66;83.70
19795;BME280;10057;59.402;17.866;2023-11-21T12:48:44;102448.16;;;1.66;83.85
19795;BME280;10057;59.402;17.866;2023-11-21T12:51:14;102449.00;;;1.65;83.65
19795;BME280;10057;59.402;17.866;2023-11-21T12:53:42;102451.66;;;1.67;84.04
19795;BME280;10057;59.402;17.866;2023-11-21T12:56:12;102449.94;;;1.68;83.87
19795;BME280;10057;59.402;17.866;2023-11-21T12:58:44;102452.56;;;1.68;83.78
19795;BME280;10057;59.402;17.866;2023-11-21T13:01:14;102449.09;;;1.69;83.81
19795;BME280;10057;59.402;17.866;2023-11-21T13:03:49;102448.22;;;1.68;84.03
19795;BME280;10057;59.402;17.866;2023-11-21T13:06:18;102441.25;;;1.69;83.79
19795;BME280;10057;59.402;17.866;2023-11-21T13:08:46;102453.44;;;1.68;83.78